sensor_id;sensor_type;location;lat;lon;timestamp;temperature;humidity
10231;DHT22;62604;49.432;8.680;2024-02-04T00:00:41;8.80;99.90
10231;DHT22;62604;49.432;8.680;2024-02-04T00:03:09;8.80;99.90
10231;DHT22;62604;49.432;8.680;2024-02-04T00:05:36;8.80;99.90
10231;DHT22;62604;49.432;8.680;2024-02-04T00:08:04;8.80;99.90
10231;DHT22;62604;49.432;8.680;2024-02-04T00:10:31;8.80;99.90
10231;DHT22;62604;49.432;8.680;2024-02-04T00:12:58;8.80;99.90
10231;DHT22;62604;49.432;8.680;2024-02-04T00:15:25;8.80;99.90
10231;DHT22;62604;49.432;8.680;2024-02-04T00:17:52;8.80;99.90
10231;DHT22;62604;49.432;8.680;2024-02-04T00:20:21;8.80;99.90
10231;DHT22;62604;49.432;8.680;2024-02-04T00:22:49;8.80;99.90
10231;DHT22;62604;49.432;8.680;2024-02-04T00:25:18;8.80;99.90
10231;DHT22;62604;49.432;8.680;2024-02-04T00:27:45;8.80;99.90
10231;DHT22;62604;49.432;8.680;2024-02-04T00:30:13;8.80;99.90
10231;DHT22;62604;49.432;8.680;2024-02-04T00:32:42;8.80;99.90
10231;DHT22;62604;49.432;8.680;2024-02-04T00:35:14;8.80;99.90
10231;DHT22;62604;49.432;8.680;2024-02-04T00:37:50;8.70;99.90
10231;DHT22;62604;49.432;8.680;2024-02-04T00:40:18;8.80;99.90
10231;DHT22;62604;49.432;8.680;2024-02-04T00:42:49;8.70;99.90
10231;DHT22;62604;49.432;8.680;2024-02-04T00:45:19;8.70;99.90
10231;DHT22;62604;49.432;8.680;2024-02-04T00:47:48;8.70;99.90
10231;DHT22;62604;49.432;8.680;2024-02-04T00:50:15;8.70;99.90
10231;DHT22;62604;49.432;8.680;2024-02-04T00:52:45;8.70;99.90
10231;DHT22;62604;49.432;8.680;2024-02-04T00:55:15;8.70;99.90
10231;DHT22;62604;49.432;8.680;2024-02-04T00:57:45;8.60;99.90
10231;DHT22;62604;49.432;8.680;2024-02-04T01:00:13;8.60;99.90
10231;DHT22;62604;49.432;8.680;2024-02-04T01:02:40;8.60;99.90
10231;DHT22;62604;49.432;8.680;2024-02-04T01:05:09;8.50;99.90
10231;DHT22;62604;49.432;8.680;2024-02-04T01:07:36;8.50;99.90
10231;DHT22;62604;49.432;8.680;2024-02-04T01:10:03;8.50;99.90
10231;DHT22;62604;49.432;8.680;2024-02-04T01:12:34;8.40;99.90
10231;DHT22;62604;49.432;8.680;2024-02-04T01:15:02;8.40;99.90
10231;DHT22;62604;49.432;8.680;2024-02-04T01:17:34;8.30;99.90
10231;DHT22;62604;49.432;8.680;2024-02-04T01:20:10;8.30;99.90
10231;DHT22;62604;49.432;8.680;2024-02-04T01:22:37;8.20;99.90
10231;DHT22;62604;49.432;8.680;2024-02-04T01:25:07;8.20;99.90
10231;DHT22;62604;49.432;8.680;2024-02-04T01:27:39;8.10;99.90
10231;DHT22;62604;49.432;8.680;2024-02-04T01:30:08;8.10;99.90
10231;DHT22;62604;49.432;8.680;2024-02-04T01:32:37;8.10;99.90
10231;DHT22;62604;49.432;8.680;2024-02-04T01:35:06;8.10;99.90
10231;DHT22;62604;49.432;8.680;2024-02-04T01:37:35;8.10;99.90
10231;DHT22;62604;49.432;8.680;2024-02-04T01:40:05;8.10;99.90
10231;DHT22;62604;49.432;8.680;2024-02-04T01:42:32;8.00;99.90
10231;DHT22;62604;49.432;8.680;2024-02-04T01:45:06;8.00;99.90
10231;DHT22;62604;49.432;8.680;2024-02-04T01:47:35;8.10;99.90
10231;DHT22;62604;49.432;8.680;2024-02-04T01:50:03;8.10;99.90
10231;DHT22;62604;49.432;8.680;2024-02-04T01:52:34;8.00;99.90
10231;DHT22;62604;49.432;8.680;2024-02-04T01:55:05;8.00;99.90
10231;DHT22;62604;49.432;8.680;2024-02-04T01:57:33;8.00;99.90
10231;DHT22;62604;49.432;8.680;2024-02-04T02:00:03;8.10;99.90
10231;DHT22;62604;49.432;8.680;2024-02-04T02:02:31;8.10;99.90
10231;DHT22;62604;49.432;8.680;2024-02-04T02:05:00;8.10;99.90
10231;DHT22;62604;49.432;8.680;2024-02-04T02:07:27;8.10;99.90
10231;DHT22;62604;49.432;8.680;2024-02-04T02:09:56;8.10;99.90
10231;DHT22;62604;49.432;8.680;2024-02-04T02:12:26;8.10;99.90
10231;DHT22;62604;49.432;8.680;2024-02-04T02:15:01;8.10;99.90
10231;DHT22;62604;49.432;8.680;2024-02-04T02:17:38;8.10;99.90
10231;DHT22;62604;49.432;8.680;2024-02-04T02:20:17;8.10;99.90
10231;DHT22;62604;49.432;8.680;2024-02-04T02:22:50;8.10;99.90
10231;DHT22;62604;49.432;8.680;2024-02-04T02:25:25;8.10;99.90
10231;DHT22;62604;49.432;8.680;2024-02-04T02:27:54;8.10;99.90
10231;DHT22;62604;49.432;8.680;2024-02-04T02:30:23;8.10;99.90
10231;DHT22;62604;49.432;8.680;2024-02-04T02:32:51;8.10;99.90
10231;DHT22;62604;49.432;8.680;2024-02-04T02:35:18;8.00;99.90
10231;DHT22;62604;49.432;8.680;2024-02-04T02:37:51;8.00;99.90
10231;DHT22;62604;49.432;8.680;2024-02-04T02:40:40;8.00;99.90
10231;DHT22;62604;49.432;8.680;2024-02-04T02:43:10;8.00;99.90
10231;DHT22;62604;49.432;8.680;2024-02-04T02:45:42;8.00;99.90
10231;DHT22;62604;49.432;8.680;2024-02-04T02:48:11;7.90;99.90
10231;DHT22;62604;49.432;8.680;2024-02-04T02:50:39;7.90;99.90
10231;DHT22;62604;49.432;8.680;2024-02-04T02:53:06;7.90;99.90
10231;DHT22;62604;49.432;8.680;2024-02-04T02:55:48;7.90;99.90
10231;DHT22;62604;49.432;8.680;2024-02-04T02:58:15;7.90;99.90
10231;DHT22;62604;49.432;8.680;2024-02-04T03:00:42;7.90;99.90
10231;DHT22;62604;49.432;8.680;2024-02-04T03:03:11;7.90;99.90
10231;DHT22;62604;49.432;8.680;2024-02-04T03:05:38;7.90;99.90
10231;DHT22;62604;49.432;8.680;2024-02-04T03:08:05;7.90;99.90
10231;DHT22;62604;49.432;8.680;2024-02-04T03:10:32;7.90;99.90
10231;DHT22;62604;49.432;8.680;2024-02-04T03:13:01;7.90;99.90
10231;DHT22;62604;49.432;8.680;2024-02-04T03:15:28;7.90;99.90
10231;DHT22;62604;49.432;8.680;2024-02-04T03:17:56;7.90;99.90
10231;DHT22;62604;49.432;8.680;2024-02-04T03:20:23;7.90;99.90
10231;DHT22;62604;49.432;8.680;2024-02-04T03:22:51;7.90;99.90
10231;DHT22;62604;49.432;8.680;2024-02-04T03:25:26;7.90;99.90
10231;DHT22;62604;49.432;8.680;2024-02-04T03:27:54;7.90;99.90
10231;DHT22;62604;49.432;8.680;2024-02-04T03:30:23;7.90;99.90
10231;DHT22;62604;49.432;8.680;2024-02-04T03:32:50;7.90;99.90
10231;DHT22;62604;49.432;8.680;2024-02-04T03:35:18;7.90;99.90
10231;DHT22;62604;49.432;8.680;2024-02-04T03:37:46;7.90;99.90
10231;DHT22;62604;49.432;8.680;2024-02-04T03:40:13;7.90;99.90
10231;DHT22;62604;49.432;8.680;2024-02-04T03:42:40;7.80;99.90
10231;DHT22;62604;49.432;8.680;2024-02-04T03:45:08;7.80;99.90
10231;DHT22;62604;49.432;8.680;2024-02-04T03:47:37;7.80;99.90
10231;DHT22;62604;49.432;8.680;2024-02-04T03:50:06;7.90;99.90
10231;DHT22;62604;49.432;8.680;2024-02-04T03:52:33;7.90;99.90
10231;DHT22;62604;49.432;8.680;2024-02-04T03:55:00;7.90;99.90
10231;DHT22;62604;49.432;8.680;2024-02-04T03:57:28;7.90;99.90
10231;DHT22;62604;49.432;8.680;2024-02-04T03:59:55;7.90;99.90
10231;DHT22;62604;49.432;8.680;2024-02-04T04:02:22;7.90;99.90
10231;DHT22;62604;49.432;8.680;2024-02-04T04:04:56;7.90;99.90
10231;DHT22;62604;49.432;8.680;2024-02-04T04:07:22;7.90;99.90
10231;DHT22;62604;49.432;8.680;2024-02-04T04:09:49;7.80;99.90
10231;DHT22;62604;49.432;8.680;2024-02-04T04:12:16;7.80;99.90
10231;DHT22;62604;49.432;8.680;2024-02-04T04:14:46;7.80;99.90
10231;DHT22;62604;49.432;8.680;2024-02-04T04:17:13;7.80;99.90
10231;DHT22;62604;49.432;8.680;2024-02-04T04:19:40;7.80;99.90
10231;DHT22;62604;49.432;8.680;2024-02-04T04:22:10;7.80;99.90
10231;DHT22;62604;49.432;8.680;2024-02-04T04:24:39;7.80;99.90
10231;DHT22;62604;49.432;8.680;2024-02-04T04:27:09;7.80;99.90
10231;DHT22;62604;49.432;8.680;2024-02-04T04:29:36;7.90;99.90
10231;DHT22;62604;49.432;8.680;2024-02-04T04:32:03;7.90;99.90
10231;DHT22;62604;49.432;8.680;2024-02-04T04:34:32;7.90;99.90
10231;DHT22;62604;49.432;8.680;2024-02-04T04:36:59;7.90;99.90
10231;DHT22;62604;49.432;8.680;2024-02-04T04:39:31;7.90;99.90
10231;DHT22;62604;49.432;8.680;2024-02-04T04:42:07;7.90;99.90
10231;DHT22;62604;49.432;8.680;2024-02-04T04:44:34;7.90;99.90
10231;DHT22;62604;49.432;8.680;2024-02-04T04:47:01;7.90;99.90
10231;DHT22;62604;49.432;8.680;2024-02-04T04:49:27;7.90;99.90
10231;DHT22;62604;49.432;8.680;2024-02-04T04:51:55;7.90;99.90
10231;DHT22;62604;49.432;8.680;2024-02-04T04:54:22;7.90;99.90
10231;DHT22;62604;49.432;8.680;2024-02-04T04:56:50;7.90;99.90
10231;DHT22;62604;49.432;8.680;2024-02-04T04:59:17;8.00;99.90
10231;DHT22;62604;49.432;8.680;2024-02-04T05:01:47;8.00;99.90
10231;DHT22;62604;49.432;8.680;2024-02-04T05:04:16;8.00;99.90
10231;DHT22;62604;49.432;8.680;2024-02-04T05:06:44;8.00;99.90
10231;DHT22;62604;49.432;8.680;2024-02-04T05:09:11;8.00;99.90
10231;DHT22;62604;49.432;8.680;2024-02-04T05:11:39;8.00;99.90
10231;DHT22;62604;49.432;8.680;2024-02-04T05:14:08;8.00;99.90
10231;DHT22;62604;49.432;8.680;2024-02-04T05:16:36;8.00;99.90
10231;DHT22;62604;49.432;8.680;2024-02-04T05:19:03;8.10;99.90
10231;DHT22;62604;49.432;8.680;2024-02-04T05:21:30;8.10;99.90
10231;DHT22;62604;49.432;8.680;2024-02-04T05:23:57;8.10;99.90
10231;DHT22;62604;49.432;8.680;2024-02-04T05:26:24;8.10;99.90
10231;DHT22;62604;49.432;8.680;2024-02-04T05:28:51;8.10;99.90
10231;DHT22;62604;49.432;8.680;2024-02-04T05:31:19;8.10;99.90
10231;DHT22;62604;49.432;8.680;2024-02-04T05:33:46;8.10;99.90
10231;DHT22;62604;49.432;8.680;2024-02-04T05:36:13;8.10;99.90
10231;DHT22;62604;49.432;8.680;2024-02-04T05:38:44;8.20;99.90
10231;DHT22;62604;49.432;8.680;2024-02-04T05:41:12;8.20;99.90
10231;DHT22;62604;49.432;8.680;2024-02-04T05:43:40;8.20;99.90
10231;DHT22;62604;49.432;8.680;2024-02-04T05:46:08;8.20;99.90
10231;DHT22;62604;49.432;8.680;2024-02-04T05:48:39;8.20;99.90
10231;DHT22;62604;49.432;8.680;2024-02-04T05:51:11;8.20;99.90
10231;DHT22;62604;49.432;8.680;2024-02-04T05:53:38;8.20;99.90
10231;DHT22;62604;49.432;8.680;2024-02-04T05:56:05;8.20;99.90
10231;DHT22;62604;49.432;8.680;2024-02-04T05:58:32;8.30;99.90
10231;DHT22;62604;49.432;8.680;2024-02-04T06:00:59;8.30;99.90
10231;DHT22;62604;49.432;8.680;2024-02-04T06:03:26;8.30;99.90
10231;DHT22;62604;49.432;8.680;2024-02-04T06:05:55;8.30;99.90
10231;DHT22;62604;49.432;8.680;2024-02-04T06:08:25;8.30;99.90
10231;DHT22;62604;49.432;8.680;2024-02-04T06:10:52;8.30;99.90
10231;DHT22;62604;49.432;8.680;2024-02-04T06:13:19;8.30;99.90
10231;DHT22;62604;49.432;8.680;2024-02-04T06:15:47;8.30;99.90
10231;DHT22;62604;49.432;8.680;2024-02-04T06:18:18;8.30;99.90
10231;DHT22;62604;49.432;8.680;2024-02-04T06:20:46;8.30;99.90
10231;DHT22;62604;49.432;8.680;2024-02-04T06:23:15;8.30;99.90
10231;DHT22;62604;49.432;8.680;2024-02-04T06:25:46;8.30;99.90
10231;DHT22;62604;49.432;8.680;2024-02-04T06:28:16;8.30;99.90
10231;DHT22;62604;49.432;8.680;2024-02-04T06:30:42;8.30;99.90
10231;DHT22;62604;49.432;8.680;2024-02-04T06:33:09;8.30;99.90
10231;DHT22;62604;49.432;8.680;2024-02-04T06:35:38;8.30;99.90
10231;DHT22;62604;49.432;8.680;2024-02-04T06:38:07;8.30;99.90
10231;DHT22;62604;49.432;8.680;2024-02-04T06:40:35;8.30;99.90
10231;DHT22;62604;49.432;8.680;2024-02-04T06:43:04;8.30;99.90
10231;DHT22;62604;49.432;8.680;2024-02-04T06:45:31;8.30;99.90
10231;DHT22;62604;49.432;8.680;2024-02-04T06:47:57;8.20;99.90
10231;DHT22;62604;49.432;8.680;2024-02-04T06:50:24;8.30;99.90
10231;DHT22;62604;49.432;8.680;2024-02-04T06:52:53;8.20;99.90
10231;DHT22;62604;49.432;8.680;2024-02-04T06:55:20;8.30;99.90
10231;DHT22;62604;49.432;8.680;2024-02-04T06:57:48;8.20;99.90
10231;DHT22;62604;49.432;8.680;2024-02-04T07:00:16;8.20;99.90
10231;DHT22;62604;49.432;8.680;2024-02-04T07:02:43;8.20;99.90
10231;DHT22;62604;49.432;8.680;2024-02-04T07:05:10;8.20;99.90
10231;DHT22;62604;49.432;8.680;2024-02-04T07:07:37;8.20;99.90
10231;DHT22;62604;49.432;8.680;2024-02-04T07:10:05;8.20;99.90
10231;DHT22;62604;49.432;8.680;2024-02-04T07:12:32;8.20;99.90
10231;DHT22;62604;49.432;8.680;2024-02-04T07:15:01;8.20;99.90
10231;DHT22;62604;49.432;8.680;2024-02-04T07:17:28;8.20;99.90
10231;DHT22;62604;49.432;8.680;2024-02-04T07:19:55;8.20;99.90
10231;DHT22;62604;49.432;8.680;2024-02-04T07:22:22;8.20;99.90
10231;DHT22;62604;49.432;8.680;2024-02-04T07:24:49;8.20;99.90
10231;DHT22;62604;49.432;8.680;2024-02-04T07:27:16;8.20;99.90
10231;DHT22;62604;49.432;8.680;2024-02-04T07:29:43;8.30;99.90
10231;DHT22;62604;49.432;8.680;2024-02-04T07:32:11;8.20;99.90
10231;DHT22;62604;49.432;8.680;2024-02-04T07:34:38;8.20;99.90
10231;DHT22;62604;49.432;8.680;2024-02-04T07:37:05;8.20;99.90
10231;DHT22;62604;49.432;8.680;2024-02-04T07:39:32;8.20;99.90
10231;DHT22;62604;49.432;8.680;2024-02-04T07:41:59;8.20;99.90
10231;DHT22;62604;49.432;8.680;2024-02-04T07:44:27;8.20;99.90
10231;DHT22;62604;49.432;8.680;2024-02-04T07:46:54;8.20;99.90
10231;DHT22;62604;49.432;8.680;2024-02-04T07:49:23;8.20;99.90
10231;DHT22;62604;49.432;8.680;2024-02-04T07:51:50;8.20;99.90
10231;DHT22;62604;49.432;8.680;2024-02-04T07:54:16;8.20;99.90
10231;DHT22;62604;49.432;8.680;2024-02-04T07:56:43;8.20;99.90
10231;DHT22;62604;49.432;8.680;2024-02-04T07:59:10;8.20;99.90
10231;DHT22;62604;49.432;8.680;2024-02-04T08:01:37;8.20;99.90
10231;DHT22;62604;49.432;8.680;2024-02-04T08:04:05;8.20;99.90
10231;DHT22;62604;49.432;8.680;2024-02-04T08:06:38;8.20;99.90
10231;DHT22;62604;49.432;8.680;2024-02-04T08:09:08;8.20;99.90
10231;DHT22;62604;49.432;8.680;2024-02-04T08:11:35;8.20;99.90
10231;DHT22;62604;49.432;8.680;2024-02-04T08:14:02;8.20;99.90
10231;DHT22;62604;49.432;8.680;2024-02-04T08:16:29;8.20;99.90
10231;DHT22;62604;49.432;8.680;2024-02-04T08:18:56;8.10;99.90
10231;DHT22;62604;49.432;8.680;2024-02-04T08:21:23;8.20;99.90
10231;DHT22;62604;49.432;8.680;2024-02-04T08:23:51;8.10;99.90
10231;DHT22;62604;49.432;8.680;2024-02-04T08:26:18;8.20;99.90
10231;DHT22;62604;49.432;8.680;2024-02-04T08:28:45;8.20;99.90
10231;DHT22;62604;49.432;8.680;2024-02-04T08:31:12;8.30;99.90
10231;DHT22;62604;49.432;8.680;2024-02-04T08:33:39;8.30;99.90
10231;DHT22;62604;49.432;8.680;2024-02-04T08:36:06;8.20;99.90
10231;DHT22;62604;49.432;8.680;2024-02-04T08:38:36;8.20;99.90
10231;DHT22;62604;49.432;8.680;2024-02-04T08:41:04;8.20;99.90
10231;DHT22;62604;49.432;8.680;2024-02-04T08:43:31;8.20;99.90
10231;DHT22;62604;49.432;8.680;2024-02-04T08:45:58;8.30;99.90
10231;DHT22;62604;49.432;8.680;2024-02-04T08:48:25;8.30;99.90
10231;DHT22;62604;49.432;8.680;2024-02-04T08:50:52;8.30;99.90
10231;DHT22;62604;49.432;8.680;2024-02-04T08:53:20;8.30;99.90
10231;DHT22;62604;49.432;8.680;2024-02-04T08:55:49;8.30;99.90
10231;DHT22;62604;49.432;8.680;2024-02-04T08:58:17;8.30;99.90
10231;DHT22;62604;49.432;8.680;2024-02-04T09:00:44;8.40;99.90
10231;DHT22;62604;49.432;8.680;2024-02-04T09:03:11;8.40;99.90
10231;DHT22;62604;49.432;8.680;2024-02-04T09:05:39;8.40;99.90
10231;DHT22;62604;49.432;8.680;2024-02-04T09:08:06;8.40;99.90
10231;DHT22;62604;49.432;8.680;2024-02-04T09:10:33;8.50;99.90
10231;DHT22;62604;49.432;8.680;2024-02-04T09:13:00;8.50;99.90
10231;DHT22;62604;49.432;8.680;2024-02-04T09:15:28;8.50;99.90
10231;DHT22;62604;49.432;8.680;2024-02-04T09:17:55;8.50;99.90
10231;DHT22;62604;49.432;8.680;2024-02-04T09:20:22;8.60;99.90
10231;DHT22;62604;49.432;8.680;2024-02-04T09:22:49;8.60;99.90
10231;DHT22;62604;49.432;8.680;2024-02-04T09:25:16;8.60;99.90
10231;DHT22;62604;49.432;8.680;2024-02-04T09:27:43;8.70;99.90
10231;DHT22;62604;49.432;8.680;2024-02-04T09:30:11;8.70;99.90
10231;DHT22;62604;49.432;8.680;2024-02-04T09:32:39;8.70;99.90
10231;DHT22;62604;49.432;8.680;2024-02-04T09:35:07;8.70;99.90
10231;DHT22;62604;49.432;8.680;2024-02-04T09:37:34;8.70;99.90
10231;DHT22;62604;49.432;8.680;2024-02-04T09:40:02;8.70;99.90
10231;DHT22;62604;49.432;8.680;2024-02-04T09:42:30;8.70;99.90
10231;DHT22;62604;49.432;8.680;2024-02-04T09:44:58;8.70;99.90
10231;DHT22;62604;49.432;8.680;2024-02-04T09:47:25;8.70;99.90
10231;DHT22;62604;49.432;8.680;2024-02-04T09:49:53;8.70;99.90
10231;DHT22;62604;49.432;8.680;2024-02-04T09:52:27;8.70;99.90
10231;DHT22;62604;49.432;8.680;2024-02-04T09:54:59;8.70;99.90
10231;DHT22;62604;49.432;8.680;2024-02-04T09:57:26;8.80;99.90
10231;DHT22;62604;49.432;8.680;2024-02-04T09:59:55;8.70;99.90
10231;DHT22;62604;49.432;8.680;2024-02-04T10:02:23;8.80;99.90
10231;DHT22;62604;49.432;8.680;2024-02-04T10:04:50;8.80;99.90
10231;DHT22;62604;49.432;8.680;2024-02-04T10:07:18;8.80;99.90
10231;DHT22;62604;49.432;8.680;2024-02-04T10:09:45;8.80;99.90
10231;DHT22;62604;49.432;8.680;2024-02-04T10:12:12;8.80;99.90
10231;DHT22;62604;49.432;8.680;2024-02-04T10:14:39;8.80;99.90
10231;DHT22;62604;49.432;8.680;2024-02-04T10:17:07;8.80;99.90
10231;DHT22;62604;49.432;8.680;2024-02-04T10:19:34;8.80;99.90
10231;DHT22;62604;49.432;8.680;2024-02-04T10:22:02;8.90;99.90
10231;DHT22;62604;49.432;8.680;2024-02-04T10:24:30;8.90;99.90
10231;DHT22;62604;49.432;8.680;2024-02-04T10:26:57;9.00;99.90
10231;DHT22;62604;49.432;8.680;2024-02-04T10:29:25;9.00;99.90
10231;DHT22;62604;49.432;8.680;2024-02-04T10:31:53;9.00;99.90
10231;DHT22;62604;49.432;8.680;2024-02-04T10:34:23;9.10;99.90
10231;DHT22;62604;49.432;8.680;2024-02-04T10:36:50;9.10;99.90
10231;DHT22;62604;49.432;8.680;2024-02-04T10:39:18;9.10;99.90
10231;DHT22;62604;49.432;8.680;2024-02-04T10:41:49;9.10;99.90
10231;DHT22;62604;49.432;8.680;2024-02-04T10:44:20;9.20;99.90
10231;DHT22;62604;49.432;8.680;2024-02-04T10:46:49;9.20;99.90
10231;DHT22;62604;49.432;8.680;2024-02-04T10:49:18;9.10;99.90
10231;DHT22;62604;49.432;8.680;2024-02-04T10:51:53;9.20;99.90
10231;DHT22;62604;49.432;8.680;2024-02-04T10:54:24;9.30;99.90
10231;DHT22;62604;49.432;8.680;2024-02-04T10:56:56;9.40;99.90
10231;DHT22;62604;49.432;8.680;2024-02-04T10:59:27;9.50;99.90
10231;DHT22;62604;49.432;8.680;2024-02-04T11:01:57;9.60;99.90
10231;DHT22;62604;49.432;8.680;2024-02-04T11:04:25;9.70;99.90
10231;DHT22;62604;49.432;8.680;2024-02-04T11:06:53;9.70;99.90
10231;DHT22;62604;49.432;8.680;2024-02-04T11:09:21;9.60;99.90
10231;DHT22;62604;49.432;8.680;2024-02-04T11:11:49;9.60;99.90
10231;DHT22;62604;49.432;8.680;2024-02-04T11:14:20;9.50;99.90
10231;DHT22;62604;49.432;8.680;2024-02-04T11:17:08;9.50;99.90
10231;DHT22;62604;49.432;8.680;2024-02-04T11:19:51;9.50;99.90
10231;DHT22;62604;49.432;8.680;2024-02-04T11:22:42;9.50;99.90
10231;DHT22;62604;49.432;8.680;2024-02-04T11:25:36;9.50;99.90
10231;DHT22;62604;49.432;8.680;2024-02-04T11:28:10;9.50;99.90
10231;DHT22;62604;49.432;8.680;2024-02-04T11:30:38;9.60;99.90
10231;DHT22;62604;49.432;8.680;2024-02-04T11:33:06;9.60;99.90
10231;DHT22;62604;49.432;8.680;2024-02-04T11:35:33;9.60;99.90
10231;DHT22;62604;49.432;8.680;2024-02-04T11:40:34;9.60;99.90
10231;DHT22;62604;49.432;8.680;2024-02-04T11:43:05;9.50;99.90
10231;DHT22;62604;49.432;8.680;2024-02-04T11:45:32;9.60;99.90
10231;DHT22;62604;49.432;8.680;2024-02-04T11:48:02;9.60;99.90
10231;DHT22;62604;49.432;8.680;2024-02-04T11:50:30;9.60;99.90
10231;DHT22;62604;49.432;8.680;2024-02-04T11:53:06;9.60;99.90
10231;DHT22;62604;49.432;8.680;2024-02-04T11:55:34;9.60;99.90
10231;DHT22;62604;49.432;8.680;2024-02-04T11:58:01;9.60;99.90
10231;DHT22;62604;49.432;8.680;2024-02-04T12:00:29;9.60;99.90
10231;DHT22;62604;49.432;8.680;2024-02-04T12:03:04;9.60;99.90
10231;DHT22;62604;49.432;8.680;2024-02-04T12:05:32;9.60;99.90
10231;DHT22;62604;49.432;8.680;2024-02-04T12:08:01;9.60;99.90
10231;DHT22;62604;49.432;8.680;2024-02-04T12:10:30;9.60;99.90
10231;DHT22;62604;49.432;8.680;2024-02-04T12:12:58;9.60;99.90
10231;DHT22;62604;49.432;8.680;2024-02-04T12:15:26;9.60;99.90
10231;DHT22;62604;49.432;8.680;2024-02-04T12:17:53;9.70;99.90
10231;DHT22;62604;49.432;8.680;2024-02-04T12:20:22;9.70;99.90
10231;DHT22;62604;49.432;8.680;2024-02-04T12:22:49;9.70;99.90
10231;DHT22;62604;49.432;8.680;2024-02-04T12:25:17;9.60;99.90
10231;DHT22;62604;49.432;8.680;2024-02-04T12:27:44;9.50;99.90
10231;DHT22;62604;49.432;8.680;2024-02-04T12:30:14;9.50;99.90
10231;DHT22;62604;49.432;8.680;2024-02-04T12:32:41;9.60;99.90
10231;DHT22;62604;49.432;8.680;2024-02-04T12:35:13;9.60;99.90
10231;DHT22;62604;49.432;8.680;2024-02-04T12:37:51;9.60;99.90
10231;DHT22;62604;49.432;8.680;2024-02-04T12:40:22;9.60;99.90
10231;DHT22;62604;49.432;8.680;2024-02-04T12:42:54;9.60;99.90
10231;DHT22;62604;49.432;8.680;2024-02-04T12:45:21;9.60;99.90
10231;DHT22;62604;49.432;8.680;2024-02-04T12:47:50;9.60;99.90
10231;DHT22;62604;49.432;8.680;2024-02-04T12:50:18;9.60;99.90
10231;DHT22;62604;49.432;8.680;2024-02-04T12:52:45;9.60;99.90
10231;DHT22;62604;49.432;8.680;2024-02-04T12:55:25;9.70;99.90
10231;DHT22;62604;49.432;8.680;2024-02-04T12:58:02;9.70;99.90
10231;DHT22;62604;49.432;8.680;2024-02-04T13:00:30;9.70;99.90
10231;DHT22;62604;49.432;8.680;2024-02-04T13:02:58;9.70;99.90
10231;DHT22;62604;49.432;8.680;2024-02-04T13:05:25;9.70;99.90
10231;DHT22;62604;49.432;8.680;2024-02-04T13:07:57;9.70;99.90
10231;DHT22;62604;49.432;8.680;2024-02-04T13:10:30;9.80;99.90
10231;DHT22;62604;49.432;8.680;2024-02-04T13:13:01;9.70;99.90
10231;DHT22;62604;49.432;8.680;2024-02-04T13:15:28;9.60;99.90
10231;DHT22;62604;49.432;8.680;2024-02-04T13:17:56;9.70;99.90
10231;DHT22;62604;49.432;8.680;2024-02-04T13:20:24;9.70;99.90
10231;DHT22;62604;49.432;8.680;2024-02-04T13:22:51;9.70;99.90
10231;DHT22;62604;49.432;8.680;2024-02-04T13:25:20;9.70;99.90
10231;DHT22;62604;49.432;8.680;2024-02-04T13:27:50;9.70;99.90
10231;DHT22;62604;49.432;8.680;2024-02-04T13:30:18;9.70;99.90
10231;DHT22;62604;49.432;8.680;2024-02-04T13:32:48;9.70;99.90
10231;DHT22;62604;49.432;8.680;2024-02-04T13:35:16;9.70;99.90
10231;DHT22;62604;49.432;8.680;2024-02-04T13:37:45;9.70;99.90
10231;DHT22;62604;49.432;8.680;2024-02-04T13:40:14;9.80;99.90
10231;DHT22;62604;49.432;8.680;2024-02-04T13:42:42;9.80;99.90
10231;DHT22;62604;49.432;8.680;2024-02-04T13:45:11;9.80;99.90
10231;DHT22;62604;49.432;8.680;2024-02-04T13:47:39;9.80;99.90
10231;DHT22;62604;49.432;8.680;2024-02-04T13:50:07;9.80;99.90
10231;DHT22;62604;49.432;8.680;2024-02-04T13:52:34;9.80;99.90
10231;DHT22;62604;49.432;8.680;2024-02-04T13:55:01;9.90;99.90
10231;DHT22;62604;49.432;8.680;2024-02-04T13:57:30;9.90;99.90
10231;DHT22;62604;49.432;8.680;2024-02-04T13:59:57;9.90;99.90
10231;DHT22;62604;49.432;8.680;2024-02-04T14:02:26;9.90;99.90
10231;DHT22;62604;49.432;8.680;2024-02-04T14:04:55;9.90;99.90
10231;DHT22;62604;49.432;8.680;2024-02-04T14:07:22;9.90;99.90
10231;DHT22;62604;49.432;8.680;2024-02-04T14:09:49;9.90;99.90
10231;DHT22;62604;49.432;8.680;2024-02-04T14:12:16;9.90;99.90
10231;DHT22;62604;49.432;8.680;2024-02-04T14:14:43;9.90;99.90
10231;DHT22;62604;49.432;8.680;2024-02-04T14:17:10;10.00;99.90
10231;DHT22;62604;49.432;8.680;2024-02-04T14:19:39;9.90;99.90
10231;DHT22;62604;49.432;8.680;2024-02-04T14:22:06;10.00;99.90
10231;DHT22;62604;49.432;8.680;2024-02-04T14:24:33;10.00;99.90
10231;DHT22;62604;49.432;8.680;2024-02-04T14:27:00;10.00;99.90
10231;DHT22;62604;49.432;8.680;2024-02-04T14:29:27;10.00;99.90
10231;DHT22;62604;49.432;8.680;2024-02-04T14:31:54;10.00;99.90
10231;DHT22;62604;49.432;8.680;2024-02-04T14:34:21;10.00;99.90
10231;DHT22;62604;49.432;8.680;2024-02-04T14:36:50;10.00;99.90
10231;DHT22;62604;49.432;8.680;2024-02-04T14:39:17;10.10;99.90
10231;DHT22;62604;49.432;8.680;2024-02-04T14:41:44;10.10;99.90
10231;DHT22;62604;49.432;8.680;2024-02-04T14:44:11;10.20;99.90
10231;DHT22;62604;49.432;8.680;2024-02-04T14:46:38;10.20;99.90
10231;DHT22;62604;49.432;8.680;2024-02-04T14:49:05;10.20;99.90
10231;DHT22;62604;49.432;8.680;2024-02-04T14:51:32;10.20;99.90
10231;DHT22;62604;49.432;8.680;2024-02-04T14:54:03;10.10;99.90
10231;DHT22;62604;49.432;8.680;2024-02-04T14:56:30;10.10;99.90
10231;DHT22;62604;49.432;8.680;2024-02-04T14:58:58;10.10;99.90
10231;DHT22;62604;49.432;8.680;2024-02-04T15:01:25;10.00;99.90
10231;DHT22;62604;49.432;8.680;2024-02-04T15:03:52;10.00;99.90
10231;DHT22;62604;49.432;8.680;2024-02-04T15:06:20;10.00;99.90
10231;DHT22;62604;49.432;8.680;2024-02-04T15:08:47;10.00;99.90
10231;DHT22;62604;49.432;8.680;2024-02-04T15:11:15;9.90;99.90
10231;DHT22;62604;49.432;8.680;2024-02-04T15:13:43;9.90;99.90
10231;DHT22;62604;49.432;8.680;2024-02-04T15:16:12;9.90;99.90
10231;DHT22;62604;49.432;8.680;2024-02-04T15:18:41;9.90;99.90
10231;DHT22;62604;49.432;8.680;2024-02-04T15:21:09;9.90;99.90
10231;DHT22;62604;49.432;8.680;2024-02-04T15:23:37;9.90;99.90
10231;DHT22;62604;49.432;8.680;2024-02-04T15:26:06;9.80;99.90
10231;DHT22;62604;49.432;8.680;2024-02-04T15:28:36;9.80;99.90
10231;DHT22;62604;49.432;8.680;2024-02-04T15:31:04;9.80;99.90
10231;DHT22;62604;49.432;8.680;2024-02-04T15:33:32;9.80;99.90
10231;DHT22;62604;49.432;8.680;2024-02-04T15:35:59;9.80;99.90
10231;DHT22;62604;49.432;8.680;2024-02-04T15:38:26;9.80;99.90
10231;DHT22;62604;49.432;8.680;2024-02-04T15:40:53;9.80;99.90
10231;DHT22;62604;49.432;8.680;2024-02-04T15:43:20;9.80;99.90
10231;DHT22;62604;49.432;8.680;2024-02-04T15:45:49;9.80;99.90
10231;DHT22;62604;49.432;8.680;2024-02-04T15:48:18;9.70;99.90
10231;DHT22;62604;49.432;8.680;2024-02-04T15:50:48;9.70;99.90
10231;DHT22;62604;49.432;8.680;2024-02-04T15:53:16;9.70;99.90
10231;DHT22;62604;49.432;8.680;2024-02-04T15:55:44;9.70;99.90